Time;durP1;ratioP1;P1;durP2;ratioP2;P2;SDS_P1;SDS_P2;PMS_P1;PMS_P2;Temp;Humidity;BMP_temperature;BMP_pressure;BME280_temperature;BME280_humidity;BME280_pressure;Samples;Min_cycle;Max_cycle;Signal;HPM_P1;HPM_P2
2022/04/05 00:00:11;;;;;;;20.27;13.55;;;;;;;10.66;100.00;100452.00;5299511;28;20073;-69
2022/04/05 00:02:43;;;;;;;22.35;13.02;;;;;;;10.66;100.00;100446.78;5298574;28;20049;-69
2022/04/05 00:05:14;;;;;;;27.83;12.93;;;;;;;10.62;100.00;100445.41;5299080;28;20032;-69
2022/04/05 00:07:46;;;;;;;23.13;12.85;;;;;;;10.60;100.00;100447.31;5296287;28;20114;-69
2022/04/05 00:10:17;;;;;;;22.90;12.85;;;;;;;10.57;100.00;100442.34;5298795;28;20085;-69
2022/04/05 00:12:48;;;;;;;18.65;11.55;;;;;;;10.58;100.00;100442.22;5299031;28;20306;-69
2022/04/05 00:15:20;;;;;;;20.02;12.60;;;;;;;10.58;100.00;100459.75;5299416;28;20051;-69
2022/04/05 00:17:51;;;;;;;21.20;11.90;;;;;;;10.59;100.00;100450.91;5302859;28;20042;-69
2022/04/05 00:20:22;;;;;;;22.45;12.15;;;;;;;10.55;100.00;100452.16;5299210;28;20124;-69
2022/04/05 00:22:54;;;;;;;18.35;11.38;;;;;;;10.58;100.00;100463.19;5300930;28;20031;-69
2022/04/05 00:25:26;;;;;;;19.97;11.67;;;;;;;10.59;100.00;100461.41;5296520;28;20063;-69
2022/04/05 00:27:58;;;;;;;18.88;11.68;;;;;;;10.56;100.00;100466.91;5299993;28;20028;-69
2022/04/05 00:30:29;;;;;;;20.50;11.43;;;;;;;10.56;100.00;100459.88;5299452;28;20532;-69
2022/04/05 00:33:00;;;;;;;21.02;12.20;;;;;;;10.53;100.00;100464.56;5300867;28;20791;-69
2022/04/05 00:35:32;;;;;;;20.27;11.65;;;;;;;10.52;100.00;100457.69;5297168;28;20078;-69
2022/04/05 00:38:03;;;;;;;17.65;10.68;;;;;;;10.52;100.00;100455.88;5296263;28;20379;-69
2022/04/05 00:40:38;;;;;;;20.77;12.73;;;;;;;10.50;100.00;100460.44;5295981;28;20814;-69
2022/04/05 00:43:10;;;;;;;19.25;11.23;;;;;;;10.55;100.00;100455.59;5300062;28;20020;-69
2022/04/05 00:45:41;;;;;;;24.23;12.30;;;;;;;10.51;100.00;100454.22;5299479;28;20510;-69
2022/04/05 00:48:27;;;;;;;17.38;11.02;;;;;;;10.61;100.00;100462.09;5299623;28;20008;-70
2022/04/05 00:50:58;;;;;;;22.90;12.23;;;;;;;10.51;100.00;100461.28;5300728;28;20036;-69
2022/04/05 00:53:32;;;;;;;24.40;12.27;;;;;;;10.56;100.00;100454.63;5298244;28;20047;-69
2022/04/05 00:56:05;;;;;;;19.80;11.15;;;;;;;10.55;100.00;100460.84;5297909;28;20028;-70
2022/04/05 00:58:38;;;;;;;20.05;11.50;;;;;;;10.55;100.00;100465.25;5297718;28;20119;-69
2022/04/05 01:01:09;;;;;;;18.33;11.70;;;;;;;10.53;100.00;100473.28;5300498;28;20585;-69
2022/04/05 01:03:47;;;;;;;16.80;11.23;;;;;;;10.57;100.00;100463.31;5297573;28;20027;-69
2022/04/05 01:06:38;;;;;;;20.95;11.13;;;;;;;10.66;100.00;100452.84;5299368;28;20111;-69
2022/04/05 01:09:11;;;;;;;18.08;11.85;;;;;;;10.53;100.00;100462.78;5297499;28;20396;-69
2022/04/05 01:11:42;;;;;;;17.67;11.00;;;;;;;10.54;100.00;100469.69;5298840;28;20391;-69
2022/04/05 01:14:13;;;;;;;22.85;12.63;;;;;;;10.52;100.00;100465.53;5293286;28;20020;-69
2022/04/05 01:16:45;;;;;;;16.80;12.13;;;;;;;10.49;100.00;100458.78;5297306;28;20023;-69
2022/04/05 01:19:16;;;;;;;19.42;12.63;;;;;;;10.48;100.00;100463.19;5299183;28;20040;-69
2022/04/05 01:21:47;;;;;;;20.08;12.18;;;;;;;10.51;100.00;100469.94;5300058;28;20028;-69
2022/04/05 01:24:19;;;;;;;19.77;12.13;;;;;;;10.46;100.00;100465.13;5301946;28;20775;-69
2022/04/05 01:26:52;;;;;;;21.73;12.10;;;;;;;10.48;100.00;100481.53;5302363;28;20020;-69
2022/04/05 01:29:26;;;;;;;19.02;11.65;;;;;;;10.48;100.00;100471.03;5300081;28;20062;-69
2022/04/05 01:31:59;;;;;;;16.38;11.95;;;;;;;10.48;100.00;100471.03;5299871;27;20028;-69
2022/04/05 01:34:32;;;;;;;;;;;;;;;10.81;100.00;100468.94;5303313;28;20027;-69
2022/04/05 01:37:06;;;;;;;23.95;11.38;;;;;;;10.50;100.00;100475.34;5305013;28;19912;-69
2022/04/05 01:39:39;;;;;;;18.50;12.07;;;;;;;10.46;100.00;100478.22;5301317;28;20408;-69
2022/04/05 01:42:13;;;;;;;24.33;12.15;;;;;;;10.46;100.00;100483.47;5302817;28;20032;-69
2022/04/05 01:44:45;;;;;;;20.73;11.93;;;;;;;10.46;100.00;100483.47;5302733;28;20164;-69
2022/04/05 01:47:18;;;;;;;18.73;11.63;;;;;;;10.46;100.00;100472.16;5302454;28;20028;-69
2022/04/05 01:49:49;;;;;;;18.05;10.82;;;;;;;10.43;100.00;100478.50;5301462;28;20019;-69
2022/04/05 01:52:20;;;;;;;21.70;11.80;;;;;;;10.40;100.00;100473.53;5302584;28;20488;-69
2022/04/05 01:54:52;;;;;;;17.20;11.27;;;;;;;10.42;100.00;100473.41;5303482;28;20139;-69
2022/04/05 01:57:23;;;;;;;17.55;11.20;;;;;;;10.40;100.00;100478.75;5298330;28;20032;-69
2022/04/05 01:59:54;;;;;;;16.38;10.35;;;;;;;10.42;100.00;100476.03;5303784;28;20420;-69
2022/04/05 02:02:26;;;;;;;15.88;10.55;;;;;;;10.41;100.00;100472.56;5299238;28;20476;-69
2022/04/05 02:04:57;;;;;;;19.10;11.23;;;;;;;10.42;100.00;100479.47;5298867;28;20433;-69
2022/04/05 02:07:29;;;;;;;20.75;10.95;;;;;;;10.43;100.00;100478.50;5299772;28;20388;-69
2022/04/05 02:10:00;;;;;;;22.05;11.00;;;;;;;10.41;100.00;100472.56;5298294;28;20447;-69
2022/04/05 02:12:31;;;;;;;18.08;10.15;;;;;;;10.43;100.00;100467.19;5302515;28;20059;-69
2022/04/05 02:15:04;;;;;;;15.73;9.68;;;;;;;10.41;100.00;100482.22;5304836;28;20026;-69
2022/04/05 02:17:35;;;;;;;17.93;9.53;;;;;;;10.41;100.00;100477.78;5299896;28;20027;-69
2022/04/05 02:20:08;;;;;;;15.63;10.02;;;;;;;10.40;100.00;100476.16;5300351;28;20772;-69
2022/04/05 02:22:39;;;;;;;17.38;10.63;;;;;;;10.39;100.00;100479.75;5301559;28;20031;-69
2022/04/05 02:25:10;;;;;;;12.32;9.73;;;;;;;10.40;100.00;100478.75;5301151;28;20072;-69
2022/04/05 02:27:42;;;;;;;15.35;9.90;;;;;;;10.40;100.00;100483.19;5299397;28;20039;-69
2022/04/05 02:30:13;;;;;;;19.15;11.15;;;;;;;10.36;100.00;100476.56;5301890;28;20050;-69
2022/04/05 02:32:45;;;;;;;21.65;10.65;;;;;;;10.37;100.00;100478.22;5298181;28;20499;-69
2022/04/05 02:35:16;;;;;;;19.20;10.98;;;;;;;10.38;100.00;100479.84;5299706;28;20024;-69
2022/04/05 02:37:47;;;;;;;16.65;10.85;;;;;;;10.36;100.00;100484.44;5301557;28;20032;-69
2022/04/05 02:40:19;;;;;;;14.80;10.57;;;;;;;10.36;100.00;100481.81;5296770;28;20509;-69
2022/04/05 02:42:50;;;;;;;16.83;10.88;;;;;;;10.37;100.00;100479.03;5301928;28;20027;-69
2022/04/05 02:45:22;;;;;;;16.38;10.57;;;;;;;10.37;100.00;100484.28;5295953;28;20030;-69
2022/04/05 02:47:54;;;;;;;17.15;10.88;;;;;;;10.37;100.00;100481.66;5303304;28;20054;-69
2022/04/05 02:50:25;;;;;;;16.52;10.77;;;;;;;10.36;100.00;100477.38;5301948;28;20177;-69
2022/04/05 02:52:57;;;;;;;17.35;11.15;;;;;;;10.38;100.00;100482.47;5300153;28;20107;-70
2022/04/05 02:55:28;;;;;;;16.02;10.48;;;;;;;10.38;100.00;100480.72;5299304;28;20032;-69
2022/04/05 02:57:59;;;;;;;17.65;11.65;;;;;;;10.36;100.00;100481.81;5299289;28;20031;-69
2022/04/05 03:00:31;;;;;;;16.67;11.40;;;;;;;10.37;100.00;100479.03;5299574;28;20055;-69
2022/04/05 03:03:03;;;;;;;20.25;11.77;;;;;;;10.36;100.00;100472.16;5299349;28;20865;-69
2022/04/05 03:05:34;;;;;;;16.63;10.53;;;;;;;10.37;100.00;100473.81;5299108;28;20057;-69
2022/04/05 03:08:06;;;;;;;20.30;11.15;;;;;;;10.36;100.00;100472.16;5298387;28;20023;-70
2022/04/05 03:10:37;;;;;;;16.92;11.18;;;;;;;10.37;100.00;100481.66;5298707;28;20039;-69
2022/04/05 03:13:08;;;;;;;18.52;11.10;;;;;;;10.39;100.00;100476.28;5301552;28;20054;-69
2022/04/05 03:15:40;;;;;;;17.63;10.25;;;;;;;10.38;100.00;100472.84;5298396;28;20485;-69
2022/04/05 03:18:12;;;;;;;17.00;11.52;;;;;;;10.35;100.00;100478.38;5300742;28;20443;-70
2022/04/05 03:20:44;;;;;;;14.37;11.00;;;;;;;10.34;100.00;100478.47;5302246;28;20060;-70
2022/04/05 03:23:15;;;;;;;19.20;11.35;;;;;;;10.35;100.00;100480.16;5300675;28;20134;-69
2022/04/05 03:25:47;;;;;;;17.60;11.63;;;;;;;10.35;100.00;100478.38;5300078;28;20739;-69
2022/04/05 03:28:20;;;;;;;16.63;11.07;;;;;;;10.35;100.00;100482.78;5311381;27;20466;-70
2022/04/05 03:30:51;;;;;;;18.08;11.00;;;;;;;10.32;100.00;100473.41;5298788;28;20035;-69
2022/04/05 03:33:23;;;;;;;17.42;11.45;;;;;;;10.33;100.00;100477.66;5296975;28;20028;-69
2022/04/05 03:35:55;;;;;;;18.98;10.90;;;;;;;10.29;100.00;100471.03;5301196;28;20065;-69
2022/04/05 03:38:26;;;;;;;16.83;10.82;;;;;;;10.30;100.00;100469.25;5298364;28;20035;-69
2022/04/05 03:40:57;;;;;;;15.25;10.27;;;;;;;10.33;100.00;100477.66;5298275;28;20489;-69
2022/04/05 03:43:29;;;;;;;17.65;11.18;;;;;;;10.35;100.00;100472.31;5299800;28;20031;-69
2022/04/05 03:46:00;;;;;;;19.00;11.30;;;;;;;10.33;100.00;100469.81;5299867;28;20031;-69
2022/04/05 03:48:31;;;;;;;18.73;11.07;;;;;;;10.32;100.00;100473.41;5296213;28;20242;-69
2022/04/05 03:51:09;;;;;;;19.67;12.10;;;;;;;10.32;100.00;100475.19;5300057;28;20113;-70
2022/04/05 03:53:40;;;;;;;14.90;10.88;;;;;;;10.30;100.00;100472.69;5300510;28;20396;-69
2022/04/05 03:56:12;;;;;;;14.73;10.13;;;;;;;10.31;100.00;100471.75;5297059;28;20036;-70
2022/04/05 03:58:43;;;;;;;18.45;11.00;;;;;;;10.29;100.00;100470.22;5297009;28;20518;-69
2022/04/05 04:01:15;;;;;;;16.35;10.93;;;;;;;10.27;100.00;100467.75;5297111;28;20213;-69
2022/04/05 04:03:46;;;;;;;17.55;10.10;;;;;;;10.30;100.00;100471.88;5297303;28;20023;-70
2022/04/05 04:06:18;;;;;;;18.42;10.70;;;;;;;10.29;100.00;100475.47;5295759;28;20084;-70
2022/04/05 04:08:49;;;;;;;13.30;10.85;;;;;;;10.26;100.00;100463.47;5301212;28;20027;-69
2022/04/05 04:11:20;;;;;;;13.88;10.40;;;;;;;10.25;100.00;100464.44;5299054;28;20504;-69
2022/04/05 04:13:51;;;;;;;15.10;9.80;;;;;;;10.27;100.00;100470.38;5298330;28;20480;-70
2022/04/05 04:16:23;;;;;;;15.52;10.15;;;;;;;10.27;100.00;100461.69;5299179;28;20413;-70
2022/04/05 04:18:54;;;;;;;17.42;10.73;;;;;;;10.28;100.00;100469.41;5295010;28;20044;-70
2022/04/05 04:21:25;;;;;;;15.80;10.93;;;;;;;10.27;100.00;100472.16;5299169;28;20031;-70
2022/04/05 04:23:57;;;;;;;16.33;10.05;;;;;;;10.24;100.00;100463.56;5298514;28;20051;-70
2022/04/05 04:26:28;;;;;;;17.42;10.57;;;;;;;10.25;100.00;100472.28;5300647;28;20039;-70
2022/04/05 04:29:03;;;;;;;13.70;10.25;;;;;;;10.24;100.00;100474.06;5300189;28;20274;-70
2022/04/05 04:31:36;;;;;;;11.77;9.52;;;;;;;10.24;100.00;100460.13;5296200;28;20062;-70
2022/04/05 04:34:08;;;;;;;16.83;10.25;;;;;;;10.25;100.00;100464.44;5297298;28;20090;-70
2022/04/05 04:36:39;;;;;;;16.25;10.70;;;;;;;10.24;100.00;100463.56;5296690;28;20028;-69
2022/04/05 04:39:11;;;;;;;18.40;11.15;;;;;;;10.25;100.00;100472.28;5300228;28;20031;-70
2022/04/05 04:41:42;;;;;;;13.98;10.02;;;;;;;10.24;100.00;100462.75;5299298;28;20361;-70
2022/04/05 04:44:14;;;;;;;12.40;9.95;;;;;;;10.22;100.00;100465.50;5299049;28;20028;-70
2022/04/05 04:46:45;;;;;;;15.90;10.32;;;;;;;10.26;100.00;100473.94;5298880;28;20118;-70
2022/04/05 04:49:17;;;;;;;11.95;10.65;;;;;;;10.27;100.00;100475.59;5298781;28;20094;-70
2022/04/05 04:51:48;;;;;;;12.32;10.27;;;;;;;10.27;100.00;100474.78;5299375;28;20032;-70
2022/04/05 04:54:19;;;;;;;11.45;9.75;;;;;;;10.27;100.00;100475.59;5298653;28;20035;-70
2022/04/05 04:56:51;;;;;;;12.85;10.65;;;;;;;10.26;100.00;100468.69;5301646;28;20135;-70
2022/04/05 04:59:22;;;;;;;19.20;10.88;;;;;;;10.26;100.00;100473.09;5303008;28;20497;-70
2022/04/05 05:01:53;;;;;;;15.20;11.02;;;;;;;10.22;100.00;100477.75;5301992;28;20028;-70
2022/04/05 05:04:25;;;;;;;12.80;10.27;;;;;;;10.23;100.00;100482.88;5301922;28;20032;-70
2022/04/05 05:06:56;;;;;;;14.57;10.50;;;;;;;10.25;100.00;100474.91;5301505;28;20031;-70
2022/04/05 05:09:28;;;;;;;12.82;10.43;;;;;;;10.23;100.00;100476.81;5295545;28;20028;-70
2022/04/05 05:12:00;;;;;;;14.77;11.18;;;;;;;10.20;100.00;100482.31;5303758;28;20543;-70
2022/04/05 05:14:31;;;;;;;12.23;9.40;;;;;;;10.28;100.00;100481.66;5308196;28;20051;-70
2022/04/05 05:17:03;;;;;;;13.85;10.10;;;;;;;10.24;100.00;100492.38;5299863;28;20023;-69
2022/04/05 05:19:34;;;;;;;12.93;9.88;;;;;;;10.23;100.00;100493.34;5300851;28;20032;-70
2022/04/05 05:22:06;;;;;;;15.05;11.00;;;;;;;10.20;100.00;100496.22;5302121;28;20024;-70
2022/04/05 05:24:37;;;;;;;15.52;10.00;;;;;;;10.23;100.00;100490.72;5301666;28;20039;-70
2022/04/05 05:27:08;;;;;;;13.13;10.98;;;;;;;10.25;100.00;100493.22;5299998;28;20059;-70
2022/04/05 05:29:39;;;;;;;14.90;10.02;;;;;;;10.29;100.00;100499.03;5300838;28;20028;-70
2022/04/05 05:32:11;;;;;;;11.43;10.02;;;;;;;10.26;100.00;100489.66;5303374;28;20049;-70
2022/04/05 05:34:42;;;;;;;11.70;10.13;;;;;;;10.26;100.00;100484.41;5299802;28;20031;-69
2022/04/05 05:37:14;;;;;;;12.18;10.30;;;;;;;10.23;100.00;100493.34;5296793;28;20055;-70
2022/04/05 05:39:45;;;;;;;11.43;9.45;;;;;;;10.22;100.00;100496.09;5301508;28;20348;-70
2022/04/05 05:42:16;;;;;;;12.40;10.57;;;;;;;10.21;100.00;100490.03;5299039;28;20026;-70
2022/04/05 05:44:47;;;;;;;13.70;10.88;;;;;;;10.23;100.00;100498.59;5303390;28;20076;-70
2022/04/05 05:47:19;;;;;;;11.73;10.52;;;;;;;10.23;100.00;100501.22;5303397;28;20020;-70
2022/04/05 05:49:50;;;;;;;14.68;11.13;;;;;;;10.22;100.00;100499.53;5302631;28;20051;-70
2022/04/05 05:52:21;;;;;;;16.15;11.02;;;;;;;10.22;100.00;100502.16;5300825;28;20059;-70
2022/04/05 05:54:53;;;;;;;15.10;11.57;;;;;;;10.22;100.00;100506.56;5300155;28;20586;-69
2022/04/05 05:57:24;;;;;;;17.65;11.18;;;;;;;10.21;100.00;100508.34;5301516;27;20051;-70
2022/04/05 05:59:55;;;;;;;14.05;11.60;;;;;;;10.24;100.00;100512.50;5300337;28;20039;-70
2022/04/05 06:02:26;;;;;;;18.15;11.98;;;;;;;10.25;100.00;100511.56;5300562;28;20024;-69
2022/04/05 06:04:58;;;;;;;18.15;12.32;;;;;;;10.27;100.00;100520.13;5301691;28;20469;-69
2022/04/05 06:07:29;;;;;;;15.40;11.63;;;;;;;10.27;100.00;100516.69;5301400;28;20478;-69
2022/04/05 06:10:05;;;;;;;19.55;11.68;;;;;;;10.28;100.00;100516.53;5299299;28;20561;-69
2022/04/05 06:12:38;;;;;;;16.80;11.98;;;;;;;10.28;100.00;100516.53;5298485;28;20332;-69
2022/04/05 06:15:12;;;;;;;14.88;11.35;;;;;;;10.27;100.00;100520.13;5299568;28;20034;-69
2022/04/05 06:17:46;;;;;;;18.73;12.43;;;;;;;10.30;100.00;100522.44;5302059;28;20028;-69
2022/04/05 06:20:19;;;;;;;16.45;11.45;;;;;;;10.28;100.00;100523.56;5302229;28;20051;-69
2022/04/05 06:22:53;;;;;;;13.85;11.07;;;;;;;10.26;100.00;100517.63;5300265;28;20052;-69
2022/04/05 06:25:28;;;;;;;19.17;12.95;;;;;;;10.27;100.00;100519.28;5300378;28;20303;-69
2022/04/05 06:28:02;;;;;;;15.43;11.18;;;;;;;10.22;100.00;100519.66;5298625;28;20549;-69
2022/04/05 06:30:35;;;;;;;19.25;11.48;;;;;;;10.28;100.00;100526.19;5302535;28;20023;-69
2022/04/05 06:33:17;;;;;;;;;;;;;;;10.66;100.00;100528.81;5303656;28;20442;-69
2022/04/05 06:35:51;;;;;;;15.43;9.32;;;;;;;10.38;100.00;100537.47;5294024;27;19911;-69
2022/04/05 06:38:23;;;;;;;16.08;9.95;;;;;;;10.36;100.00;100529.75;5296298;28;20497;-69
2022/04/05 06:40:56;;;;;;;14.13;9.57;;;;;;;10.34;100.00;100536.94;5295802;28;20387;-69
2022/04/05 06:43:28;;;;;;;14.70;9.95;;;;;;;10.36;100.00;100542.84;5296540;28;20028;-69
2022/04/05 06:45:59;;;;;;;14.48;10.27;;;;;;;10.34;100.00;100539.56;5295494;27;20435;-69
2022/04/05 06:48:30;;;;;;;16.70;9.07;;;;;;;10.42;100.00;100538.88;5296075;28;20407;-69
2022/04/05 06:51:01;;;;;;;14.48;9.32;;;;;;;10.43;100.00;100541.34;5300774;28;20430;-69
2022/04/05 06:53:33;;;;;;;17.20;9.68;;;;;;;10.39;100.00;100537.34;5299018;28;20471;-69
2022/04/05 06:56:06;;;;;;;14.93;10.13;;;;;;;10.47;100.00;100540.13;5302715;28;20362;-69
2022/04/05 06:58:37;;;;;;;14.32;9.40;;;;;;;10.45;100.00;100538.59;5301625;28;20111;-69
2022/04/05 07:01:09;;;;;;;13.48;8.25;;;;;;;10.47;100.00;100545.34;5300449;28;20032;-69
2022/04/05 07:03:40;;;;;;;13.88;8.45;;;;;;;10.43;100.00;100549.22;5293369;28;20032;-69
2022/04/05 07:06:11;;;;;;;15.43;9.00;;;;;;;10.43;100.00;100551.81;5294336;28;20552;-69
2022/04/05 07:08:43;;;;;;;15.25;8.48;;;;;;;10.46;100.00;100550.75;5296890;28;20774;-69
2022/04/05 07:11:14;;;;;;;10.40;7.75;;;;;;;10.45;100.00;100554.28;5293718;28;20455;-69
2022/04/05 07:13:45;;;;;;;11.43;8.32;;;;;;;10.45;100.00;100557.78;5295574;28;20034;-69
2022/04/05 07:16:17;;;;;;;13.85;8.82;;;;;;;10.47;100.00;100557.63;5296390;28;20069;-69
2022/04/05 07:18:49;;;;;;;11.75;7.68;;;;;;;10.45;100.00;100557.78;5295142;28;20046;-69
2022/04/05 07:21:20;;;;;;;12.88;8.18;;;;;;;10.48;100.00;100554.84;5296579;28;20023;-69
2022/04/05 07:23:52;;;;;;;11.32;7.82;;;;;;;10.49;100.00;100547.81;5294947;28;20073;-69
2022/04/05 07:26:23;;;;;;;11.93;7.18;;;;;;;10.50;100.00;100553.91;5294548;28;20024;-69
2022/04/05 07:28:54;;;;;;;12.23;7.93;;;;;;;10.53;100.00;100551.00;5294305;28;20019;-69
2022/04/05 07:31:26;;;;;;;13.10;6.95;;;;;;;10.53;100.00;100549.22;5297955;28;20023;-68
2022/04/05 07:33:57;;;;;;;8.38;7.45;;;;;;;10.57;100.00;100549.75;5288149;28;20392;-69
2022/04/05 07:36:29;;;;;;;10.18;7.20;;;;;;;10.58;100.00;100554.88;5294951;28;20547;-69
2022/04/05 07:39:00;;;;;;;11.48;7.10;;;;;;;10.56;100.00;100546.31;5298906;28;20073;-69
2022/04/05 07:41:31;;;;;;;12.15;7.18;;;;;;;10.55;100.00;100546.47;5299968;28;20027;-69
2022/04/05 07:44:03;;;;;;;11.35;7.22;;;;;;;10.60;100.00;100552.94;5300759;28;20365;-68
2022/04/05 07:46:35;;;;;;;11.95;6.82;;;;;;;10.59;100.00;100550.47;5299472;28;20122;-69
2022/04/05 07:49:06;;;;;;;11.18;7.28;;;;;;;10.63;100.00;100547.41;5296323;28;20016;-70
2022/04/05 07:51:38;;;;;;;10.55;6.70;;;;;;;10.66;100.00;100541.91;5301171;28;20305;-69
2022/04/05 07:54:09;;;;;;;9.50;6.63;;;;;;;10.65;100.00;100550.75;5299603;28;20667;-69
2022/04/05 07:56:41;;;;;;;12.98;6.00;;;;;;;10.65;100.00;100550.75;5297367;28;20400;-69
2022/04/05 07:59:12;;;;;;;11.70;6.30;;;;;;;10.70;100.00;100548.53;5294356;28;20024;-69
2022/04/05 08:01:48;;;;;;;8.43;5.97;;;;;;;10.70;100.00;100548.53;5300719;28;20020;-69
2022/04/05 08:04:20;;;;;;;9.43;6.63;;;;;;;10.64;100.00;100549.06;5302293;28;20020;-69
2022/04/05 08:06:51;;;;;;;8.00;5.90;;;;;;;10.71;100.00;100546.72;5299567;28;20031;-69
2022/04/05 08:09:22;;;;;;;11.88;6.35;;;;;;;10.70;100.00;100543.28;5298792;28;20016;-69
2022/04/05 08:11:55;;;;;;;12.63;6.47;;;;;;;10.70;100.00;100543.28;5301753;28;20110;-69
2022/04/05 08:14:27;;;;;;;10.77;6.15;;;;;;;10.78;100.00;100550.44;5295950;28;20485;-69
2022/04/05 08:17:01;;;;;;;8.47;5.67;;;;;;;10.79;100.00;100554.72;5296697;28;20075;-69
2022/04/05 08:19:32;;;;;;;8.55;5.90;;;;;;;10.80;100.00;100555.56;5295768;28;20044;-68
2022/04/05 08:22:04;;;;;;;10.77;5.63;;;;;;;10.80;100.00;100559.03;5296414;28;20038;-69
2022/04/05 08:24:36;;;;;;;8.98;5.72;;;;;;;10.85;100.00;100558.59;5297716;28;20268;-69
2022/04/05 08:27:07;;;;;;;10.10;5.60;;;;;;;10.89;100.00;100563.41;5297344;28;20036;-69
2022/04/05 08:29:44;;;;;;;10.00;6.10;;;;;;;10.95;100.00;100565.50;5298351;28;20095;-69
2022/04/05 08:32:18;;;;;;;11.77;5.55;;;;;;;10.94;100.00;100568.22;5299394;28;20097;-69
2022/04/05 08:34:49;;;;;;;9.82;5.68;;;;;;;10.92;100.00;100565.75;5294660;28;20024;-69
2022/04/05 08:37:22;;;;;;;7.57;5.35;;;;;;;10.99;100.00;100568.66;5297671;28;20067;-69
2022/04/05 08:39:53;;;;;;;;;;;;;;;11.40;100.00;100559.63;5300077;28;20027;-69
2022/04/05 08:42:24;;;;;;;8.70;5.60;;;;;;;11.09;100.00;100558.16;5299004;28;20281;-69
2022/04/05 08:44:56;;;;;;;8.68;6.70;;;;;;;11.13;100.00;100575.25;5290870;28;20027;-69
2022/04/05 08:47:28;;;;;;;7.38;5.38;;;;;;;11.11;100.00;100570.16;5293228;28;20039;-69
2022/04/05 08:50:02;;;;;;;9.52;5.95;;;;;;;11.17;100.00;100574.00;5297920;28;20241;-69
2022/04/05 08:52:34;;;;;;;;;;;;;;;11.56;100.00;100576.56;5300516;28;20030;-69
2022/04/05 08:55:06;;;;;;;7.72;5.07;;;;;;;11.20;100.00;100581.59;5297110;28;20237;-69
2022/04/05 08:57:38;;;;;;;6.32;5.07;;;;;;;11.17;100.00;100574.00;5299380;28;20031;-69
2022/04/05 09:00:11;;;;;;;7.38;5.18;;;;;;;11.19;100.00;100577.31;5300354;28;20306;-69
2022/04/05 09:02:57;;;;;;;8.25;5.80;;;;;;;11.28;100.00;100579.09;5297467;28;20035;-69
2022/04/05 09:05:38;;;;;;;7.38;5.32;;;;;;;11.29;100.00;100574.66;5300023;28;20259;-69
2022/04/05 09:08:16;;;;;;;9.52;5.45;;;;;;;11.33;100.00;100581.31;5299496;28;20024;-69
2022/04/05 09:10:49;;;;;;;7.95;5.53;;;;;;;11.26;100.00;100583.66;5301181;28;20028;-69
2022/04/05 09:13:23;;;;;;;7.30;5.30;;;;;;;11.32;100.00;100583.09;5295130;28;20031;-69
2022/04/05 09:15:58;;;;;;;8.00;5.82;;;;;;;11.38;100.00;100579.91;5296730;28;20618;-69
2022/04/05 09:18:44;;;;;;;9.68;5.70;;;;;;;11.45;100.00;100578.38;5291813;28;20058;-69
2022/04/05 09:21:15;;;;;;;8.55;6.15;;;;;;;11.41;100.00;100576.19;5294652;28;20540;-69
2022/04/05 09:23:52;;;;;;;10.63;5.80;;;;;;;11.45;100.00;100575.75;5293873;28;20038;-69
2022/04/05 09:26:26;;;;;;;9.77;5.65;;;;;;;11.44;100.00;100579.34;5299983;28;20038;-69
2022/04/05 09:29:06;;;;;;;8.15;5.93;;;;;;;11.57;100.00;100586.06;5299888;28;20537;-69
2022/04/05 09:31:48;;;;;;;8.07;6.00;;;;;;;11.62;100.00;100592.53;5296134;28;20501;-69
2022/04/05 09:34:19;;;;;;;8.75;5.82;;;;;;;11.50;100.00;100588.44;5295098;28;20027;-69
2022/04/05 09:36:51;;;;;;;6.78;5.55;;;;;;;11.51;100.00;100597.13;5298127;28;20101;-69
2022/04/05 09:39:25;;;;;;;8.55;6.25;;;;;;;11.54;100.00;100592.41;5296349;28;20056;-69
2022/04/05 09:41:56;;;;;;;9.07;5.55;;;;;;;11.52;100.00;100598.81;5297310;28;20035;-70
2022/04/05 09:44:33;;;;;;;9.57;5.90;;;;;;;11.55;100.00;100591.44;5300381;28;20032;-69
2022/04/05 09:47:18;;;;;;;8.35;5.90;;;;;;;11.67;100.00;100594.75;5307621;28;20031;-69
2022/04/05 09:49:50;;;;;;;9.95;6.68;;;;;;;11.61;100.00;100592.69;5299376;28;20024;-69
2022/04/05 09:52:27;;;;;;;9.93;6.85;;;;;;;11.68;100.00;100597.22;5300966;28;20024;-69
2022/04/05 09:55:16;;;;;;;8.20;6.10;;;;;;;11.76;100.00;100598.31;5309112;28;20031;-69
2022/04/05 09:57:47;;;;;;;8.07;5.88;;;;;;;11.60;100.00;100589.25;5302118;27;20202;-70
2022/04/05 10:00:19;;;;;;;8.00;6.15;;;;;;;11.65;100.00;100591.44;5298803;28;20024;-69
2022/04/05 10:03:09;;;;;;;8.02;6.47;;;;;;;11.82;100.00;100592.47;5303285;28;20520;-70
2022/04/05 10:05:40;;;;;;;11.10;7.15;;;;;;;11.73;100.00;100599.41;5299877;28;20015;-69
2022/04/05 10:08:12;;;;;;;10.07;5.82;;;;;;;11.66;100.00;100599.16;5298733;28;20024;-70
2022/04/05 10:10:43;;;;;;;10.63;6.20;;;;;;;11.68;100.00;100601.66;5300679;28;20067;-69
2022/04/05 10:13:14;;;;;;;7.55;5.45;;;;;;;11.65;100.00;100596.69;5299077;28;20046;-70
2022/04/05 10:15:47;;;;;;;9.20;5.47;;;;;;;11.67;100.00;100598.19;5296320;28;20034;-69
2022/04/05 10:18:21;;;;;;;8.02;5.40;;;;;;;11.67;100.00;100592.94;5299214;28;20032;-69
2022/04/05 10:20:53;;;;;;;6.40;5.15;;;;;;;11.74;100.00;100605.47;5299360;28;20497;-69
2022/04/05 10:23:25;;;;;;;7.45;4.82;;;;;;;11.77;100.00;100607.81;5298509;28;20088;-69
2022/04/05 10:25:58;;;;;;;9.00;5.03;;;;;;;11.87;100.00;100595.53;5299381;28;20032;-69
2022/04/05 10:28:32;;;;;;;7.57;5.13;;;;;;;11.97;100.00;100603.34;5300580;28;20093;-69
2022/04/05 10:31:41;;;;;;;6.90;5.45;;;;;;;12.26;100.00;100600.59;5299400;28;20058;-69
2022/04/05 10:34:28;;;;;;;6.85;5.10;;;;;;;12.14;100.00;100602.59;5279156;28;20036;-69
2022/04/05 10:37:19;;;;;;;8.75;4.75;;;;;;;12.12;100.00;100600.13;5299469;28;20085;-70
2022/04/05 10:39:56;;;;;;;11.82;5.15;;;;;;;12.11;100.00;100593.19;5298351;28;20068;-70
2022/04/05 10:42:36;;;;;;;9.38;5.25;;;;;;;12.17;100.00;100603.13;5297325;28;20062;-69
2022/04/05 10:45:07;;;;;;;6.05;5.28;;;;;;;12.16;100.00;100598.03;5294167;28;20035;-70
2022/04/05 10:47:58;;;;;;;5.80;4.50;;;;;;;12.32;100.00;100595.56;5298133;28;20273;-70
2022/04/05 10:50:29;;;;;;;5.38;4.45;;;;;;;12.14;100.00;100594.72;5304081;28;20034;-69
2022/04/05 10:53:10;;;;;;;7.47;5.03;;;;;;;12.40;100.00;100592.22;5298678;28;20031;-69
2022/04/05 10:56:03;;;;;;;7.22;4.63;;;;;;;12.38;100.00;100599.41;5300298;28;20484;-69
2022/04/05 10:58:37;;;;;;;6.13;4.78;;;;;;;12.39;100.00;100599.28;5298633;28;20030;-69
2022/04/05 11:01:18;;;;;;;7.32;5.00;;;;;;;12.42;100.00;100595.50;5297795;28;20418;-69
2022/04/05 11:04:19;;;;;;;5.38;4.03;;;;;;;12.46;100.00;100590.78;5299432;28;20134;-69
2022/04/05 11:07:02;;;;;;;6.13;3.80;;;;;;;12.57;100.00;100593.19;5300293;28;20016;-70
2022/04/05 11:09:47;;;;;;;5.88;3.80;;;;;;;12.45;100.00;100600.47;5300644;28;20028;-69
2022/04/05 11:12:28;;;;;;;5.28;3.70;;;;;;;12.46;100.00;100602.09;5298242;28;20020;-69
2022/04/05 11:15:04;;;;;;;9.20;4.07;;;;;;;12.52;100.00;100600.72;5296190;28;20027;-69
2022/04/05 11:17:37;;;;;;;7.80;3.88;;;;;;;12.43;100.00;100606.88;5299348;28;20085;-69
2022/04/05 11:20:10;;;;;;;7.70;3.92;;;;;;;12.47;100.00;100601.16;5300098;28;20587;-70
2022/04/05 11:22:42;;;;;;;;;;;;;;;12.86;100.00;100599.06;5299841;28;20036;-69
2022/04/05 11:25:26;;;;;;;6.72;4.18;;;;;;;12.59;100.00;100607.03;5299271;28;19923;-69
2022/04/05 11:28:13;;;;;;;7.78;4.55;;;;;;;12.64;100.00;100594.25;5301874;28;20074;-70
2022/04/05 11:30:46;;;;;;;5.35;4.57;;;;;;;12.54;100.00;100594.34;5295555;28;20054;-69
2022/04/05 11:33:33;;;;;;;;;;;;;;;13.00;100.00;100589.00;5295830;28;20379;-70
2022/04/05 11:36:09;;;;;;;6.25;4.10;;;;;;;12.59;100.00;100593.88;5301313;28;19912;-69